Time;durP1;ratioP1;P1;durP2;ratioP2;P2;SDS_P1;SDS_P2;PMS_P1;PMS_P2;Temp;Humidity;BMP_temperature;BMP_pressure;BME280_temperature;BME280_humidity;BME280_pressure;Samples;Min_cycle;Max_cycle;Signal;HPM_P1;HPM_P2
2024/03/22 00:00:13;;;;;;;0.50;0.50;;;;;;;9.48;88.14;97524.97;29395;406;63012;-55
2024/03/22 00:00:44;;;;;;;0.50;0.50;;;;;;;9.48;87.90;97524.97;29395;487;63013;-55
2024/03/22 00:01:15;;;;;;;0.50;0.50;;;;;;;9.47;87.93;97523.34;29394;198;64009;-55
2024/03/22 00:01:47;;;;;;;0.50;0.50;;;;;;;9.48;88.00;97530.38;29395;204;63009;-68
2024/03/22 00:02:19;;;;;;;0.50;0.50;;;;;;;9.48;87.94;97524.97;29395;231;63005;-55
2024/03/22 00:02:51;;;;;;;0.50;0.50;;;;;;;9.49;87.53;97523.87;29395;263;63005;-55
2024/03/22 00:03:23;;;;;;;0.50;0.50;;;;;;;9.48;87.85;97528.50;29395;269;63004;-55
2024/03/22 00:03:54;;;;;;;0.50;0.50;;;;;;;9.48;87.53;97528.50;29395;204;63009;-68
2024/03/22 00:04:26;;;;;;;0.50;0.50;;;;;;;9.48;87.89;97530.38;29395;203;63004;-55
2024/03/22 00:04:57;;;;;;;0.50;0.50;;;;;;;9.47;87.78;97528.75;29394;230;64013;-68
2024/03/22 00:05:28;;;;;;;0.50;0.50;;;;;;;9.47;88.05;97531.47;29395;197;63004;-55
2024/03/22 00:05:59;;;;;;;0.50;0.50;;;;;;;9.46;87.78;97527.94;29395;201;63008;-55
2024/03/22 00:06:30;;;;;;;0.50;0.50;;;;;;;9.46;88.26;97521.72;29395;359;63005;-55
2024/03/22 00:07:03;;;;;;;0.50;0.50;;;;;;;9.45;87.79;97530.94;29395;445;63009;-55
2024/03/22 00:07:34;;;;;;;0.50;0.50;;;;;;;9.45;87.78;97525.50;29394;240;64009;-55
2024/03/22 00:08:05;;;;;;;0.47;0.47;;;;;;;9.45;87.87;97525.50;29395;219;63009;-69
2024/03/22 00:08:36;;;;;;;0.50;0.50;;;;;;;9.44;88.03;97519.28;29395;269;63005;-55
2024/03/22 00:09:08;;;;;;;0.50;0.50;;;;;;;9.44;87.70;97518.47;29395;205;63009;-68
2024/03/22 00:09:39;;;;;;;0.50;0.50;;;;;;;9.44;87.81;97521.16;29395;202;63018;-55
2024/03/22 00:10:11;;;;;;;0.50;0.50;;;;;;;9.43;87.90;97519.53;29395;273;63017;-54
2024/03/22 00:10:42;;;;;;;0.50;0.50;;;;;;;9.42;88.13;97521.44;29395;213;63004;-68
2024/03/22 00:11:14;;;;;;;0.50;0.50;;;;;;;9.43;87.90;97516.84;29395;212;63009;-69
2024/03/22 00:11:45;;;;;;;0.50;0.50;;;;;;;9.43;88.16;97519.53;29395;213;63004;-68
2024/03/22 00:12:16;;;;;;;0.50;0.50;;;;;;;9.43;87.97;97516.84;29395;444;63008;-55
2024/03/22 00:12:50;;;;;;;0.50;0.50;;;;;;;9.41;87.92;97507.09;29394;229;64008;-68
2024/03/22 00:13:24;;;;;;;0.50;0.50;;;;;;;9.41;87.77;97514.41;29395;225;63008;-55
2024/03/22 00:13:59;;;;;;;0.50;0.50;;;;;;;9.41;87.83;97509.78;29395;351;63005;-56
2024/03/22 00:14:33;;;;;;;0.50;0.50;;;;;;;9.41;87.68;97515.22;29395;344;63009;-70
2024/03/22 00:15:07;;;;;;;0.47;0.47;;;;;;;9.40;88.10;97512.78;29395;249;63005;-69
2024/03/22 00:15:38;;;;;;;0.50;0.50;;;;;;;9.40;87.70;97510.06;29395;409;63009;-56
2024/03/22 00:16:10;;;;;;;0.50;0.50;;;;;;;9.39;87.83;97517.38;29395;218;63005;-68
2024/03/22 00:16:42;;;;;;;0.50;0.50;;;;;;;9.39;88.04;97514.66;29395;476;63009;-68
2024/03/22 00:17:15;;;;;;;0.50;0.50;;;;;;;9.39;88.01;97514.66;29395;232;63004;-70
2024/03/22 00:17:47;;;;;;;0.47;0.47;;;;;;;9.37;87.83;97514.13;29395;218;63009;-54
2024/03/22 00:18:18;;;;;;;0.50;0.50;;;;;;;9.38;88.15;97514.94;29394;228;64009;-55
2024/03/22 00:18:50;;;;;;;0.50;0.50;;;;;;;9.36;87.96;97512.50;29395;413;63009;-55
2024/03/22 00:19:21;;;;;;;0.50;0.50;;;;;;;9.36;88.08;97514.38;29395;263;63004;-55
2024/03/22 00:19:53;;;;;;;0.50;0.50;;;;;;;9.34;88.44;97514.69;29395;419;63008;-56
2024/03/22 00:20:25;;;;;;;0.50;0.50;;;;;;;9.34;88.34;97514.69;29394;245;64008;-55
2024/03/22 00:20:56;;;;;;;0.50;0.50;;;;;;;9.33;88.23;97513.06;29395;367;63021;-70
2024/03/22 00:21:29;;;;;;;0.50;0.50;;;;;;;9.33;88.37;97507.66;29395;377;63005;-55
2024/03/22 00:22:04;;;;;;;0.50;0.50;;;;;;;9.32;88.57;97516.84;29394;222;64014;-55
2024/03/22 00:22:35;;;;;;;0.50;0.50;;;;;;;9.30;88.61;97510.88;29395;219;63011;-55
2024/03/22 00:23:06;;;;;;;0.50;0.50;;;;;;;9.30;88.54;97513.59;29395;253;63018;-55
2024/03/22 00:23:37;;;;;;;0.50;0.50;;;;;;;9.30;88.73;97519.00;29395;202;63005;-55
2024/03/22 00:24:08;;;;;;;0.50;0.50;;;;;;;9.30;88.51;97508.19;29395;196;63009;-55
2024/03/22 00:24:40;;;;;;;0.47;0.47;;;;;;;9.30;88.43;97519.00;29395;359;63005;-68
2024/03/22 00:25:11;;;;;;;0.50;0.50;;;;;;;9.29;88.60;97511.97;29394;199;64013;-55
2024/03/22 00:25:43;;;;;;;0.50;0.50;;;;;;;9.29;88.47;97513.88;29395;199;63004;-55
2024/03/22 00:26:14;;;;;;;0.50;0.50;;;;;;;9.27;88.44;97508.72;29395;278;63009;-69
2024/03/22 00:26:46;;;;;;;0.50;0.50;;;;;;;9.27;88.61;97507.91;29395;403;63004;-55
2024/03/22 00:27:17;;;;;;;0.50;0.50;;;;;;;9.27;88.37;97511.44;29395;317;63008;-55
2024/03/22 00:27:49;;;;;;;0.50;0.50;;;;;;;9.27;88.70;97511.44;29395;363;63004;-55
2024/03/22 00:28:23;;;;;;;0.50;0.50;;;;;;;9.26;88.68;97511.69;29395;390;63009;-56
2024/03/22 00:28:54;;;;;;;0.50;0.50;;;;;;;9.25;88.74;97508.16;29395;197;63005;-55
2024/03/22 00:29:26;;;;;;;0.50;0.50;;;;;;;9.24;88.81;97506.53;29395;204;63009;-55
2024/03/22 00:29:58;;;;;;;0.50;0.50;;;;;;;9.22;88.67;97508.72;29394;236;64009;-69
2024/03/22 00:30:29;;;;;;;0.50;0.50;;;;;;;9.22;88.80;97505.19;29395;214;63009;-69
2024/03/22 00:31:00;;;;;;;0.50;0.50;;;;;;;9.22;89.00;97508.72;29395;279;63005;-55
2024/03/22 00:31:32;;;;;;;0.50;0.50;;;;;;;9.21;88.93;97504.38;29395;315;63009;-55
2024/03/22 00:32:04;;;;;;;0.50;0.50;;;;;;;9.20;88.91;97501.94;29395;232;63005;-55
2024/03/22 00:32:38;;;;;;;0.50;0.50;;;;;;;9.20;88.87;97510.06;29395;199;63009;-55
2024/03/22 00:33:10;;;;;;;0.50;0.50;;;;;;;9.18;89.03;97504.09;29394;248;64009;-56
2024/03/22 00:33:41;;;;;;;0.50;0.50;;;;;;;9.16;88.86;97507.06;29395;275;63009;-55
2024/03/22 00:34:13;;;;;;;0.50;0.50;;;;;;;9.15;88.96;97502.72;29395;203;63010;-69
2024/03/22 00:34:45;;;;;;;0.50;0.50;;;;;;;9.14;88.95;97503.81;29395;418;63013;-55
2024/03/22 00:35:17;;;;;;;0.50;0.50;;;;;;;9.13;89.25;97504.09;29395;213;63004;-55
2024/03/22 00:35:48;;;;;;;0.50;0.50;;;;;;;9.12;89.26;97505.97;29395;318;63009;-68
2024/03/22 00:36:20;;;;;;;0.50;0.50;;;;;;;9.11;89.20;97504.34;29394;197;64009;-55
2024/03/22 00:36:51;;;;;;;0.50;0.50;;;;;;;9.11;89.54;97504.34;29394;310;64014;-55
2024/03/22 00:37:22;;;;;;;0.50;0.50;;;;;;;9.11;89.56;97500.81;29395;396;63005;-55
2024/03/22 00:37:54;;;;;;;0.50;0.50;;;;;;;9.08;89.33;97503.00;29395;249;63009;-55
2024/03/22 00:38:25;;;;;;;0.50;0.50;;;;;;;9.08;89.40;97507.59;29395;277;63005;-55
2024/03/22 00:38:57;;;;;;;0.50;0.50;;;;;;;9.08;89.57;97507.59;29394;198;64013;-68
2024/03/22 00:39:31;;;;;;;0.50;0.50;;;;;;;9.08;89.45;97504.88;29395;224;63005;-55
2024/03/22 00:40:04;;;;;;;0.50;0.50;;;;;;;9.07;89.52;97495.13;29395;344;63009;-55
2024/03/22 00:40:35;;;;;;;0.50;0.50;;;;;;;9.03;89.38;97497.56;29395;242;63000;-68
2024/03/22 00:41:06;;;;;;;0.50;0.50;;;;;;;9.02;89.46;97500.53;29395;249;63009;-55
2024/03/22 00:41:38;;;;;;;0.50;0.50;;;;;;;9.01;89.58;97499.72;29395;203;63004;-55
2024/03/22 00:42:09;;;;;;;0.50;0.50;;;;;;;8.99;89.41;97496.50;29395;245;63009;-70
2024/03/22 00:42:40;;;;;;;0.50;0.50;;;;;;;8.99;89.43;97503.81;29395;242;63008;-55
2024/03/22 00:43:12;;;;;;;0.50;0.50;;;;;;;8.97;89.50;97498.66;29395;273;63009;-68
2024/03/22 00:43:43;;;;;;;0.50;0.50;;;;;;;8.95;89.75;97495.41;29395;251;63005;-70
2024/03/22 00:44:15;;;;;;;0.50;0.50;;;;;;;8.95;89.81;97491.88;29394;276;64014;-68
2024/03/22 00:44:46;;;;;;;0.50;0.50;;;;;;;8.94;89.96;97493.78;29395;241;63005;-55
2024/03/22 00:45:17;;;;;;;0.50;0.50;;;;;;;8.96;89.99;97490.81;29395;345;63009;-55
2024/03/22 00:45:49;;;;;;;0.50;0.50;;;;;;;8.97;90.00;97495.13;29395;268;63005;-69
2024/03/22 00:46:20;;;;;;;0.50;0.50;;;;;;;8.96;89.43;97488.09;29395;204;63009;-70
2024/03/22 00:46:52;;;;;;;0.50;0.50;;;;;;;8.96;89.43;97488.09;29394;461;64009;-70
2024/03/22 00:47:24;;;;;;;0.50;0.50;;;;;;;8.96;89.81;97490.81;29395;318;63009;-69
2024/03/22 00:47:55;;;;;;;0.50;0.50;;;;;;;8.95;89.69;97486.47;29395;439;63009;-55
2024/03/22 00:48:26;;;;;;;0.50;0.50;;;;;;;8.96;89.85;97490.81;29395;230;63009;-55
2024/03/22 00:48:58;;;;;;;0.50;0.50;;;;;;;8.95;89.58;97478.34;29395;249;63004;-55
2024/03/22 00:49:30;;;;;;;0.50;0.50;;;;;;;8.96;89.58;97477.28;29395;216;63009;-69
2024/03/22 00:50:02;;;;;;;0.50;0.50;;;;;;;8.96;89.61;97485.37;29395;392;63004;-69
2024/03/22 00:50:33;;;;;;;0.50;0.50;;;;;;;8.96;89.60;97482.69;29395;232;63017;-55
2024/03/22 00:51:08;;;;;;;0.50;0.50;;;;;;;8.96;89.26;97485.37;29395;224;63005;-55
2024/03/22 00:51:43;;;;;;;0.50;0.50;;;;;;;8.95;89.21;97478.34;29394;213;64014;-55
2024/03/22 00:52:14;;;;;;;0.50;0.50;;;;;;;8.95;89.56;97484.56;29395;251;63019;-69
2024/03/22 00:52:47;;;;;;;0.40;0.40;;;;;;;8.95;89.26;97481.88;29395;204;63009;-68
2024/03/22 00:53:19;;;;;;;0.50;0.50;;;;;;;8.95;89.35;97478.34;29395;280;63014;-55
2024/03/22 00:53:50;;;;;;;0.50;0.50;;;;;;;8.95;89.16;97481.88;29395;278;63005;-69
2024/03/22 00:54:22;;;;;;;0.50;0.50;;;;;;;8.95;89.23;97478.34;29394;244;64009;-55
2024/03/22 00:54:53;;;;;;;0.50;0.50;;;;;;;8.96;88.95;97479.97;29394;253;64013;-55
2024/03/22 00:55:28;;;;;;;0.50;0.50;;;;;;;8.95;88.86;97470.22;29395;227;63004;-70
2024/03/22 00:55:59;;;;;;;0.50;0.50;;;;;;;8.96;88.59;97480.78;29395;211;63009;-55
2024/03/22 00:56:31;;;;;;;0.50;0.50;;;;;;;8.96;88.76;97469.16;29395;223;63004;-55
2024/03/22 00:57:04;;;;;;;0.50;0.50;;;;;;;8.96;88.54;97479.97;29394;210;64013;-55
2024/03/22 00:57:35;;;;;;;0.50;0.50;;;;;;;8.95;88.46;97476.47;29395;426;63004;-68
2024/03/22 00:58:07;;;;;;;0.50;0.50;;;;;;;8.93;88.75;97472.38;29395;285;63004;-55
2024/03/22 00:58:38;;;;;;;0.50;0.50;;;;;;;8.91;88.83;97469.94;29395;418;63005;-55
2024/03/22 00:59:10;;;;;;;0.50;0.50;;;;;;;8.89;88.94;97472.09;29394;197;64014;-55
2024/03/22 00:59:41;;;;;;;0.50;0.50;;;;;;;8.87;88.99;97471.56;29394;245;64005;-55
2024/03/22 01:00:14;;;;;;;0.50;0.50;;;;;;;8.88;89.17;97466.97;29395;225;63009;-55
2024/03/22 01:00:47;;;;;;;0.50;0.50;;;;;;;8.87;89.48;97468.84;29395;330;63005;-70
2024/03/22 01:01:18;;;;;;;0.50;0.50;;;;;;;8.86;89.27;97463.72;29395;347;63013;-54
2024/03/22 01:01:50;;;;;;;0.50;0.50;;;;;;;8.86;89.58;97463.72;29395;226;63005;-55
2024/03/22 01:02:22;;;;;;;0.50;0.50;;;;;;;8.85;89.32;97462.09;29394;256;64013;-70
2024/03/22 01:02:53;;;;;;;0.50;0.50;;;;;;;8.85;89.53;97459.38;29395;221;63004;-68
2024/03/22 01:03:25;;;;;;;0.50;0.50;;;;;;;8.84;89.32;97455.84;29395;197;63009;-55
2024/03/22 01:04:00;;;;;;;0.50;0.50;;;;;;;8.85;89.26;97456.66;29395;202;63004;-71
2024/03/22 01:04:31;;;;;;;0.50;0.50;;;;;;;8.85;89.25;97462.09;29394;435;64013;-55
2024/03/22 01:05:06;;;;;;;0.50;0.50;;;;;;;8.85;89.28;97451.25;29395;354;63004;-68
2024/03/22 01:05:37;;;;;;;0.50;0.50;;;;;;;8.82;89.05;97451.78;29395;237;63008;-56
2024/03/22 01:06:08;;;;;;;0.50;0.50;;;;;;;8.86;89.13;97452.88;29395;230;63011;-70
2024/03/22 01:06:39;;;;;;;0.50;0.50;;;;;;;8.85;89.00;97456.66;29395;228;63009;-56
2024/03/22 01:07:11;;;;;;;0.50;0.50;;;;;;;8.85;89.30;97452.06;29395;255;63005;-69
2024/03/22 01:07:43;;;;;;;0.50;0.50;;;;;;;8.85;89.20;97445.84;29394;452;64013;-69
2024/03/22 01:08:14;;;;;;;0.50;0.50;;;;;;;8.84;89.65;97449.63;29395;200;63005;-55
2024/03/22 01:08:49;;;;;;;0.50;0.50;;;;;;;8.82;89.06;97447.19;29395;410;63009;-70
2024/03/22 01:09:20;;;;;;;0.50;0.50;;;;;;;8.81;89.47;97450.97;29395;207;63008;-55
2024/03/22 01:09:51;;;;;;;0.47;0.47;;;;;;;8.80;89.37;97456.66;29395;251;63009;-68
2024/03/22 01:10:22;;;;;;;0.50;0.50;;;;;;;8.78;89.64;97450.69;29395;210;63004;-67
2024/03/22 01:10:54;;;;;;;0.50;0.50;;;;;;;8.76;89.60;97452.84;29395;266;63026;-68
2024/03/22 01:11:25;;;;;;;0.50;0.50;;;;;;;8.74;89.85;97450.41;29395;232;63009;-69
2024/03/22 01:11:56;;;;;;;0.50;0.50;;;;;;;8.73;89.49;97451.50;29395;239;63015;-68
2024/03/22 01:12:28;;;;;;;0.50;0.50;;;;;;;8.70;89.89;97450.13;29394;199;64009;-69
2024/03/22 01:12:59;;;;;;;0.50;0.50;;;;;;;8.67;90.38;97450.66;29395;449;63008;-55
2024/03/22 01:13:31;;;;;;;0.50;0.50;;;;;;;8.64;90.62;97453.94;29394;223;64009;-55
2024/03/22 01:14:02;;;;;;;0.50;0.50;;;;;;;8.62;90.41;97453.38;29395;258;63009;-69
2024/03/22 01:14:33;;;;;;;0.50;0.50;;;;;;;8.61;90.50;97456.34;29395;216;63005;-68
2024/03/22 01:15:09;;;;;;;0.50;0.50;;;;;;;8.59;90.45;97453.91;29395;267;63009;-68
2024/03/22 01:15:40;;;;;;;0.50;0.50;;;;;;;8.59;90.57;97451.22;29395;222;63008;-68
2024/03/22 01:16:13;;;;;;;0.50;0.50;;;;;;;8.59;90.56;97445.81;29395;196;63009;-69
2024/03/22 01:16:45;;;;;;;0.50;0.50;;;;;;;8.58;90.96;97452.28;29395;253;63004;-68
2024/03/22 01:17:16;;;;;;;0.50;0.50;;;;;;;8.58;90.80;97452.28;29395;339;63009;-55
2024/03/22 01:17:47;;;;;;;0.50;0.50;;;;;;;8.55;91.39;97452.81;29395;290;63004;-69
2024/03/22 01:18:19;;;;;;;0.50;0.50;;;;;;;8.55;90.98;97447.41;29395;367;63009;-56
2024/03/22 01:18:51;;;;;;;0.50;0.50;;;;;;;8.54;91.00;97440.37;29394;196;64009;-55
2024/03/22 01:19:22;;;;;;;0.50;0.50;;;;;;;8.55;91.13;97439.28;29395;210;63016;-68
2024/03/22 01:19:54;;;;;;;0.50;0.50;;;;;;;8.55;91.34;97442.00;29395;230;63004;-69
2024/03/22 01:20:25;;;;;;;0.50;0.50;;;;;;;8.53;91.25;97437.94;29395;274;63008;-68
2024/03/22 01:20:58;;;;;;;0.50;0.50;;;;;;;8.52;91.51;97445.22;29395;341;63005;-55
2024/03/22 01:21:29;;;;;;;0.50;0.50;;;;;;;8.51;91.06;97440.09;29395;236;63009;-68
2024/03/22 01:22:01;;;;;;;0.50;0.50;;;;;;;8.49;91.43;97443.06;29395;236;63005;-56
2024/03/22 01:22:36;;;;;;;0.50;0.50;;;;;;;8.49;91.30;97437.66;29395;222;63009;-68
2024/03/22 01:23:07;;;;;;;0.50;0.50;;;;;;;8.48;91.51;97435.22;29395;197;63005;-55
2024/03/22 01:23:39;;;;;;;0.50;0.50;;;;;;;8.48;91.25;97435.22;29395;216;63023;-54
2024/03/22 01:24:11;;;;;;;0.50;0.50;;;;;;;8.47;91.35;97437.09;29394;224;64009;-56
2024/03/22 01:24:42;;;;;;;0.50;0.50;;;;;;;8.47;91.39;97439.81;29395;256;63017;-55
2024/03/22 01:25:14;;;;;;;0.50;0.50;;;;;;;8.48;91.57;97436.03;29395;249;63004;-69
2024/03/22 01:25:45;;;;;;;0.50;0.50;;;;;;;8.48;91.32;97433.31;29395;269;63019;-68
2024/03/22 01:26:17;;;;;;;0.50;0.50;;;;;;;8.48;91.31;97435.22;29395;252;63004;-56
2024/03/22 01:26:49;;;;;;;0.50;0.50;;;;;;;8.48;90.95;97441.44;29395;202;63008;-68
2024/03/22 01:27:20;;;;;;;0.50;0.50;;;;;;;8.48;91.21;97429.78;29394;276;64008;-55
2024/03/22 01:27:52;;;;;;;0.50;0.50;;;;;;;8.46;91.22;97438.19;29395;209;63009;-55
2024/03/22 01:28:24;;;;;;;0.50;0.50;;;;;;;8.46;90.69;97432.78;29395;231;63005;-69
2024/03/22 01:28:55;;;;;;;0.50;0.50;;;;;;;8.46;91.12;97438.19;29394;256;64014;-70
2024/03/22 01:29:30;;;;;;;0.50;0.50;;;;;;;8.45;91.51;97430.31;29395;223;63005;-55
2024/03/22 01:30:03;;;;;;;0.50;0.50;;;;;;;8.42;92.07;97437.06;29395;225;63009;-70
2024/03/22 01:30:36;;;;;;;0.50;0.50;;;;;;;8.41;92.02;97430.03;29395;279;63005;-68
2024/03/22 01:31:08;;;;;;;0.50;0.50;;;;;;;8.41;91.54;97430.03;29395;231;63005;-55
2024/03/22 01:31:42;;;;;;;0.50;0.50;;;;;;;8.40;91.82;97431.13;29395;212;63005;-68
2024/03/22 01:32:15;;;;;;;0.50;0.50;;;;;;;8.41;91.60;97430.03;29395;231;63009;-68
2024/03/22 01:32:46;;;;;;;0.50;0.50;;;;;;;8.37;91.63;97428.94;29395;266;63004;-55
2024/03/22 01:33:17;;;;;;;0.50;0.50;;;;;;;8.40;91.34;97428.41;29395;269;63009;-68
2024/03/22 01:33:49;;;;;;;0.50;0.50;;;;;;;8.40;91.59;97429.22;29394;288;64009;-55
2024/03/22 01:34:20;;;;;;;0.50;0.50;;;;;;;8.42;91.14;97426.25;29395;210;63009;-68
2024/03/22 01:34:52;;;;;;;0.50;0.50;;;;;;;8.40;91.64;97429.22;29395;252;63004;-70
2024/03/22 01:35:24;;;;;;;0.50;0.50;;;;;;;8.38;91.41;97425.16;29395;212;63009;-54
2024/03/22 01:35:55;;;;;;;0.50;0.50;;;;;;;8.38;91.66;97422.47;29395;243;63005;-68
2024/03/22 01:36:26;;;;;;;0.50;0.50;;;;;;;8.36;91.43;97421.91;29395;236;63009;-55
2024/03/22 01:36:59;;;;;;;0.50;0.50;;;;;;;8.34;91.95;97427.59;29395;197;63000;-55
2024/03/22 01:37:33;;;;;;;0.50;0.50;;;;;;;8.34;91.37;97424.06;29394;206;64013;-55
2024/03/22 01:38:07;;;;;;;0.50;0.50;;;;;;;8.35;91.94;97428.41;29395;245;63005;-55
2024/03/22 01:38:40;;;;;;;0.50;0.50;;;;;;;8.36;91.76;97421.91;29395;233;63009;-68
2024/03/22 01:39:14;;;;;;;0.50;0.50;;;;;;;8.36;91.55;97424.63;29394;219;64009;-67
2024/03/22 01:39:46;;;;;;;0.50;0.50;;;;;;;8.37;91.33;97434.34;29395;202;63009;-67
2024/03/22 01:40:18;;;;;;;0.50;0.50;;;;;;;8.36;91.37;97422.72;29395;274;63004;-68
2024/03/22 01:40:49;;;;;;;0.50;0.50;;;;;;;8.37;91.25;97427.06;29395;235;63006;-70
2024/03/22 01:41:21;;;;;;;0.60;0.60;;;;;;;8.36;91.14;97427.31;29395;229;63004;-68
2024/03/22 01:41:52;;;;;;;0.50;0.50;;;;;;;8.36;91.14;97419.22;29395;241;63009;-55
2024/03/22 01:42:23;;;;;;;0.50;0.50;;;;;;;8.37;90.99;97431.66;29394;215;64008;-56
2024/03/22 01:42:58;;;;;;;0.50;0.50;;;;;;;8.35;90.79;97426.50;29395;207;63009;-67
2024/03/22 01:43:30;;;;;;;0.50;0.50;;;;;;;8.36;90.83;97438.13;29395;234;63009;-55
2024/03/22 01:44:01;;;;;;;0.50;0.50;;;;;;;8.36;90.38;97427.31;29395;460;63009;-70
2024/03/22 01:44:33;;;;;;;0.50;0.50;;;;;;;8.37;90.53;97428.94;29394;257;64009;-55
2024/03/22 01:45:05;;;;;;;0.50;0.50;;;;;;;8.36;90.62;97432.72;29395;196;63009;-55
2024/03/22 01:45:37;;;;;;;0.50;0.50;;;;;;;8.36;90.84;97436.25;29395;199;63005;-54
2024/03/22 01:46:09;;;;;;;0.50;0.50;;;;;;;8.37;90.25;97434.34;29395;258;63009;-54
2024/03/22 01:46:41;;;;;;;0.50;0.50;;;;;;;8.39;90.13;97432.19;29395;276;63005;-55
2024/03/22 01:47:12;;;;;;;0.65;0.65;;;;;;;8.40;90.09;97431.13;29394;202;64013;-55
2024/03/22 01:47:44;;;;;;;0.50;0.50;;;;;;;8.41;89.73;97430.03;29395;202;63004;-55
2024/03/22 01:48:16;;;;;;;0.50;0.50;;;;;;;8.45;90.01;97433.84;29395;210;63009;-55
2024/03/22 01:48:48;;;;;;;0.50;0.50;;;;;;;8.45;89.86;97433.84;29395;268;63004;-69
2024/03/22 01:49:21;;;;;;;0.50;0.50;;;;;;;8.47;89.03;97431.69;29395;257;63012;-55
2024/03/22 01:49:55;;;;;;;0.50;0.50;;;;;;;8.50;89.60;97435.75;29395;218;63004;-67
2024/03/22 01:50:27;;;;;;;0.50;0.50;;;;;;;8.51;89.28;97432.78;29395;231;63005;-55
2024/03/22 01:51:01;;;;;;;0.50;0.50;;;;;;;8.51;89.06;97435.50;29395;257;63005;-71
2024/03/22 01:51:32;;;;;;;0.50;0.50;;;;;;;8.52;88.74;97431.72;29394;224;64014;-55
2024/03/22 01:52:06;;;;;;;0.50;0.50;;;;;;;8.52;88.92;97426.31;29395;202;63005;-54
2024/03/22 01:52:40;;;;;;;0.50;0.50;;;;;;;8.54;88.36;97429.56;29395;213;63009;-55
2024/03/22 01:53:12;;;;;;;0.50;0.50;;;;;;;8.54;88.57;97432.25;29395;256;63005;-55
2024/03/22 01:53:44;;;;;;;0.50;0.50;;;;;;;8.53;88.56;97430.63;29394;203;64013;-55
2024/03/22 01:54:16;;;;;;;0.50;0.50;;;;;;;8.52;88.45;97437.12;29395;266;63005;-70
2024/03/22 01:54:49;;;;;;;0.50;0.50;;;;;;;8.52;88.85;97431.72;29395;224;63009;-55
2024/03/22 01:55:22;;;;;;;0.50;0.50;;;;;;;8.52;88.59;97425.50;29395;218;63004;-55
2024/03/22 01:55:53;;;;;;;0.50;0.50;;;;;;;8.52;88.73;97428.19;29395;256;63009;-55
2024/03/22 01:56:25;;;;;;;0.50;0.50;;;;;;;8.50;88.41;97428.47;29395;232;63004;-55
2024/03/22 01:56:57;;;;;;;0.50;0.50;;;;;;;8.49;89.13;97426.84;29395;218;63009;-55
2024/03/22 01:57:28;;;;;;;0.50;0.50;;;;;;;8.46;89.74;97427.34;29395;272;63004;-55
2024/03/22 01:58:00;;;;;;;0.50;0.50;;;;;;;8.46;89.82;97424.66;29394;202;64014;-55
2024/03/22 01:58:32;;;;;;;0.50;0.50;;;;;;;8.44;89.72;97423.28;29395;230;63005;-54
2024/03/22 01:59:04;;;;;;;0.50;0.50;;;;;;;8.43;89.58;97427.06;29395;210;63009;-54
2024/03/22 01:59:36;;;;;;;0.50;0.50;;;;;;;8.41;89.95;97427.34;29395;216;63005;-67
2024/03/22 02:00:09;;;;;;;0.50;0.50;;;;;;;8.39;89.21;97426.78;29395;198;63009;-55
2024/03/22 02:00:40;;;;;;;0.50;0.50;;;;;;;8.34;89.00;97419.47;29395;211;63005;-55
2024/03/22 02:01:12;;;;;;;0.50;0.50;;;;;;;8.31;89.37;97430.00;29395;277;63009;-55
2024/03/22 02:01:43;;;;;;;0.50;0.50;;;;;;;8.32;89.40;97427.03;29394;251;64009;-55
2024/03/22 02:02:14;;;;;;;0.50;0.50;;;;;;;8.35;88.95;97428.41;29394;229;64013;-55
2024/03/22 02:02:46;;;;;;;0.50;0.50;;;;;;;8.38;88.90;97425.97;29395;202;63004;-56
2024/03/22 02:03:18;;;;;;;0.50;0.50;;;;;;;8.41;88.62;97427.34;29395;209;63009;-55
2024/03/22 02:03:49;;;;;;;0.50;0.50;;;;;;;8.40;88.34;97420.31;29394;235;64009;-55
2024/03/22 02:04:21;;;;;;;0.50;0.50;;;;;;;8.40;88.40;97428.41;29395;222;63009;-55
2024/03/22 02:04:52;;;;;;;0.50;0.50;;;;;;;8.39;88.55;97421.38;29395;219;63004;-55
2024/03/22 02:05:24;;;;;;;0.50;0.50;;;;;;;8.40;88.40;97423.00;29395;277;63009;-55
2024/03/22 02:05:56;;;;;;;0.50;0.50;;;;;;;8.40;88.32;97420.31;29395;231;63018;-56
2024/03/22 02:06:27;;;;;;;0.50;0.50;;;;;;;8.40;88.35;97420.31;29395;202;63009;-55
2024/03/22 02:06:58;;;;;;;0.50;0.50;;;;;;;8.39;88.40;97421.38;29395;205;63005;-55
2024/03/22 02:07:30;;;;;;;0.50;0.50;;;;;;;8.38;88.49;97417.06;29394;222;64013;-69
2024/03/22 02:08:01;;;;;;;0.50;0.50;;;;;;;8.38;88.80;97420.56;29395;202;63005;-55
2024/03/22 02:08:33;;;;;;;0.50;0.50;;;;;;;8.38;88.69;97414.34;29395;264;63009;-55
2024/03/22 02:09:05;;;;;;;0.50;0.50;;;;;;;8.37;89.16;97416.25;29395;262;63005;-55
2024/03/22 02:09:37;;;;;;;0.50;0.50;;;;;;;8.36;88.87;97413.81;29395;209;63009;-56
2024/03/22 02:10:13;;;;;;;0.50;0.50;;;;;;;8.35;88.80;97414.88;29395;216;63016;-56
2024/03/22 02:10:45;;;;;;;0.50;0.50;;;;;;;8.35;88.89;97414.88;29395;202;63009;-55
2024/03/22 02:11:16;;;;;;;0.50;0.50;;;;;;;8.36;89.24;97419.22;29395;240;63004;-55
2024/03/22 02:11:51;;;;;;;0.50;0.50;;;;;;;8.35;89.00;97409.47;29395;202;63009;-54
2024/03/22 02:12:22;;;;;;;0.50;0.50;;;;;;;8.35;89.53;97410.28;29394;259;64008;-69
2024/03/22 02:12:54;;;;;;;0.50;0.50;;;;;;;8.35;89.29;97409.47;29395;204;63008;-68
2024/03/22 02:13:25;;;;;;;0.50;0.50;;;;;;;8.35;89.58;97406.75;29395;226;63018;-55
2024/03/22 02:13:56;;;;;;;0.50;0.50;;;;;;;8.33;89.25;97404.31;29395;242;63009;-55
2024/03/22 02:14:28;;;;;;;0.50;0.50;;;;;;;8.32;89.20;97396.44;29394;274;64009;-55
2024/03/22 02:14:59;;;;;;;0.50;0.50;;;;;;;8.32;89.39;97399.16;29395;233;63009;-68
2024/03/22 02:15:31;;;;;;;0.50;0.50;;;;;;;8.30;89.50;97399.44;29395;229;63005;-55
2024/03/22 02:16:06;;;;;;;0.50;0.50;;;;;;;8.29;89.17;97400.53;29395;198;63027;-68
2024/03/22 02:16:40;;;;;;;0.50;0.50;;;;;;;8.28;89.63;97398.09;29395;261;63009;-55
2024/03/22 02:17:11;;;;;;;0.50;0.50;;;;;;;8.26;90.24;97403.75;29394;224;64028;-55
2024/03/22 02:17:42;;;;;;;0.50;0.50;;;;;;;8.23;90.32;97407.00;29395;204;63011;-55
2024/03/22 02:18:14;;;;;;;0.50;0.50;;;;;;;8.21;90.20;97402.91;29394;268;64013;-55
2024/03/22 02:18:45;;;;;;;0.50;0.50;;;;;;;8.19;90.20;97399.66;29395;231;63004;-68
2024/03/22 02:19:17;;;;;;;0.50;0.50;;;;;;;8.18;90.12;97398.03;29395;222;63009;-69
2024/03/22 02:19:48;;;;;;;0.50;0.50;;;;;;;8.15;90.37;97399.38;29395;252;63004;-70
2024/03/22 02:20:19;;;;;;;0.50;0.50;;;;;;;8.13;90.91;97401.53;29395;206;63008;-69
2024/03/22 02:20:51;;;;;;;0.50;0.50;;;;;;;8.11;90.93;97397.47;29395;252;63005;-71
2024/03/22 02:21:22;;;;;;;0.50;0.50;;;;;;;8.11;90.77;97402.87;29395;252;63019;-70
2024/03/22 02:21:54;;;;;;;0.50;0.50;;;;;;;8.10;91.12;97398.53;29395;236;63005;-68
2024/03/22 02:22:27;;;;;;;0.50;0.50;;;;;;;8.10;90.95;97393.13;29395;220;63009;-55
2024/03/22 02:22:58;;;;;;;1.73;1.62;;;;;;;8.10;90.96;97396.66;29395;198;63005;-55
2024/03/22 02:23:37;;;;;;;0.50;0.50;;;;;;;8.09;90.96;97395.03;29394;219;64013;-55
2024/03/22 02:24:09;;;;;;;0.50;0.50;;;;;;;8.07;91.15;97402.59;29395;202;63004;-55
2024/03/22 02:24:40;;;;;;;4.97;2.37;;;;;;;8.04;90.80;97395.81;29395;237;63009;-55
2024/03/22 02:25:11;;;;;;;0.50;0.50;;;;;;;8.04;91.00;97393.13;29395;202;63004;-55
2024/03/22 02:25:43;;;;;;;0.50;0.50;;;;;;;8.06;90.96;97398.25;29395;232;63004;-55
2024/03/22 02:26:14;;;;;;;0.50;0.50;;;;;;;8.06;90.79;97395.56;29395;238;63004;-55
2024/03/22 02:26:45;;;;;;;0.50;0.50;;;;;;;8.05;90.91;97397.44;29395;218;63008;-68
2024/03/22 02:27:16;;;;;;;0.50;0.50;;;;;;;8.03;91.22;97396.88;29395;202;63004;-55
2024/03/22 02:27:50;;;;;;;0.50;0.50;;;;;;;8.04;91.13;97403.09;29394;240;64013;-55
2024/03/22 02:28:22;;;;;;;0.50;0.50;;;;;;;8.05;90.81;97399.34;29395;270;63005;-55
2024/03/22 02:28:53;;;;;;;0.50;0.50;;;;;;;8.06;90.90;97403.66;29395;212;63009;-55
2024/03/22 02:29:24;;;;;;;0.50;0.50;;;;;;;8.04;91.47;97397.72;29394;407;64009;-70
2024/03/22 02:29:55;;;;;;;0.50;0.50;;;;;;;8.02;91.58;97394.44;29395;226;63009;-56
2024/03/22 02:30:27;;;;;;;0.50;0.50;;;;;;;8.00;91.57;97392.00;29395;199;63005;-69
2024/03/22 02:31:01;;;;;;;0.50;0.50;;;;;;;8.02;91.14;97395.25;29395;280;63009;-67
2024/03/22 02:31:32;;;;;;;0.50;0.50;;;;;;;8.02;91.45;97392.56;29395;259;63004;-55
2024/03/22 02:32:05;;;;;;;0.60;0.60;;;;;;;8.03;91.38;97391.47;29395;270;63009;-55
2024/03/22 02:32:39;;;;;;;0.50;0.50;;;;;;;8.04;91.81;97398.53;29394;199;64009;-55
2024/03/22 02:33:10;;;;;;;0.50;0.50;;;;;;;8.04;90.96;97386.91;29395;244;63009;-55
2024/03/22 02:33:45;;;;;;;0.50;0.50;;;;;;;8.06;91.30;97390.97;29395;254;63007;-55
2024/03/22 02:34:17;;;;;;;0.50;0.50;;;;;;;8.06;91.33;97390.97;29395;202;63019;-70